createdAt,value
2023-01-08T00:00:02.862Z,93.93
2023-01-08T00:01:02.906Z,93.93
2023-01-08T00:02:02.842Z,93.93
2023-01-08T00:03:02.936Z,94.04
2023-01-08T00:04:02.880Z,94.04
2023-01-08T00:05:02.798Z,94.04
2023-01-08T00:06:02.771Z,94.14
2023-01-08T00:07:02.784Z,94.14
2023-01-08T00:08:02.751Z,94.14
2023-01-08T00:09:02.754Z,94.14
2023-01-08T00:10:02.750Z,94.14
2023-01-08T00:11:02.719Z,94.04
2023-01-08T00:12:02.702Z,94.04
2023-01-08T00:13:02.685Z,94.04
2023-01-08T00:14:02.683Z,93.93
2023-01-08T00:15:02.679Z,94.04
2023-01-08T00:16:02.667Z,94.04
2023-01-08T00:17:02.693Z,94.04
2023-01-08T00:18:02.636Z,93.93
2023-01-08T00:19:02.635Z,93.93
2023-01-08T00:20:02.627Z,93.93
2023-01-08T00:21:02.594Z,93.93
2023-01-08T00:22:02.597Z,93.93
2023-01-08T00:23:02.569Z,93.83
2023-01-08T00:24:02.554Z,93.83
2023-01-08T00:25:02.551Z,93.73
2023-01-08T00:26:02.533Z,93.77
2023-01-08T00:27:02.524Z,93.66
2023-01-08T00:28:02.514Z,93.77
2023-01-08T00:29:02.530Z,93.77
2023-01-08T00:30:02.477Z,93.77
2023-01-08T00:31:03.761Z,93.91
2023-01-08T00:32:02.444Z,94.02
2023-01-08T00:33:02.447Z,94.12
2023-01-08T00:34:02.424Z,94.23
2023-01-08T00:35:02.421Z,94.23
2023-01-08T00:36:02.401Z,94.43
2023-01-08T00:37:02.402Z,94.49
2023-01-08T00:38:02.379Z,94.60
2023-01-08T00:39:02.360Z,94.60
2023-01-08T00:40:02.354Z,94.60
2023-01-08T00:41:02.333Z,94.49
2023-01-08T00:42:02.322Z,94.49
2023-01-08T00:43:02.322Z,94.49
2023-01-08T00:44:02.296Z,94.39
2023-01-08T00:45:02.321Z,94.39
2023-01-08T00:46:02.351Z,94.29
2023-01-08T00:47:02.266Z,94.29
2023-01-08T00:48:02.241Z,94.29
2023-01-08T00:49:02.255Z,94.29
2023-01-08T00:50:02.233Z,94.29
2023-01-08T00:51:02.225Z,94.18
2023-01-08T00:52:02.205Z,94.18
2023-01-08T00:53:02.184Z,94.23
2023-01-08T00:54:02.204Z,94.12
2023-01-08T00:55:02.169Z,94.12
2023-01-08T00:56:02.148Z,94.12
2023-01-08T00:57:02.134Z,93.91
2023-01-08T00:58:02.121Z,93.71
2023-01-08T00:59:02.133Z,93.71
2023-01-08T01:00:02.112Z,93.75
2023-01-08T01:01:02.186Z,93.65
2023-01-08T01:02:02.239Z,93.65
2023-01-08T01:03:02.065Z,93.65
2023-01-08T01:04:02.094Z,93.70
2023-01-08T01:05:02.055Z,93.80
2023-01-08T01:06:02.032Z,93.90
2023-01-08T01:07:02.011Z,94.01
2023-01-08T01:08:01.992Z,94.11
2023-01-08T01:09:01.983Z,94.21
2023-01-08T01:10:01.985Z,94.32
2023-01-08T01:11:01.969Z,94.32
2023-01-08T01:12:01.944Z,94.36
2023-01-08T01:13:01.947Z,94.46
2023-01-08T01:14:01.936Z,94.46
2023-01-08T01:15:01.911Z,94.46
2023-01-08T01:16:01.906Z,94.36
2023-01-08T01:17:01.978Z,94.46
2023-01-08T01:18:01.873Z,94.61
2023-01-08T01:19:01.858Z,94.61
2023-01-08T01:20:01.863Z,94.71
2023-01-08T01:21:01.831Z,94.71
2023-01-08T01:22:01.808Z,94.71
2023-01-08T01:23:01.795Z,94.71
2023-01-08T01:24:01.785Z,94.65
2023-01-08T01:25:01.808Z,94.65
2023-01-08T01:26:01.755Z,94.76
2023-01-08T01:27:01.767Z,94.65
2023-01-08T01:28:01.745Z,94.76
2023-01-08T01:29:01.739Z,94.65
2023-01-08T01:30:01.740Z,94.70
2023-01-08T01:31:01.750Z,94.70
2023-01-08T01:32:01.697Z,94.70
2023-01-08T01:33:01.677Z,94.70
2023-01-08T01:34:01.666Z,94.90
2023-01-08T01:35:01.700Z,94.90
2023-01-08T01:36:01.659Z,94.90
2023-01-08T01:37:01.655Z,95.01
2023-01-08T01:38:01.620Z,95.05
2023-01-08T01:39:01.597Z,95.15
2023-01-08T01:40:01.603Z,95.26
2023-01-08T01:41:01.587Z,95.26
2023-01-08T01:42:01.559Z,95.36
2023-01-08T01:43:01.598Z,95.26
2023-01-08T01:44:01.536Z,95.26
2023-01-08T01:45:01.550Z,95.36
2023-01-08T01:46:01.647Z,95.36
2023-01-08T01:47:01.546Z,95.47
2023-01-08T01:48:01.476Z,95.51
2023-01-08T01:49:01.486Z,95.51
2023-01-08T01:50:01.472Z,95.51
2023-01-08T01:51:01.455Z,95.51
2023-01-08T01:52:01.434Z,95.62
2023-01-08T01:53:01.424Z,95.62
2023-01-08T01:54:01.406Z,95.62
2023-01-08T01:55:01.405Z,95.62
2023-01-08T01:56:01.402Z,95.62
2023-01-08T01:57:01.388Z,95.62
2023-01-08T01:58:01.373Z,95.62
2023-01-08T01:59:01.376Z,95.62
2023-01-08T02:00:01.348Z,95.62
2023-01-08T02:01:01.348Z,95.72
2023-01-08T02:02:01.437Z,95.72
2023-01-08T02:03:01.294Z,95.72
2023-01-08T02:04:01.352Z,95.76
2023-01-08T02:05:01.280Z,95.87
2023-01-08T02:06:01.261Z,95.87
2023-01-08T02:07:01.256Z,95.87
2023-01-08T02:08:01.234Z,95.76
2023-01-08T02:09:01.218Z,95.76
2023-01-08T02:10:01.227Z,95.87
2023-01-08T02:11:01.197Z,95.87
2023-01-08T02:12:01.191Z,95.97
2023-01-08T02:13:01.172Z,95.97
2023-01-08T02:14:01.157Z,95.97
2023-01-08T02:15:01.171Z,95.97
2023-01-08T02:16:01.131Z,95.97
2023-01-08T02:17:01.162Z,96.08
2023-01-08T02:18:01.089Z,96.08
2023-01-08T02:19:01.100Z,96.08
2023-01-08T02:20:01.102Z,96.08
2023-01-08T02:21:01.070Z,96.18
2023-01-08T02:22:01.056Z,96.18
2023-01-08T02:23:01.047Z,96.18
2023-01-08T02:24:01.026Z,96.18
2023-01-08T02:25:01.040Z,96.18
2023-01-08T02:26:00.996Z,96.18
2023-01-08T02:27:00.991Z,96.28
2023-01-08T02:28:00.977Z,96.18
2023-01-08T02:29:00.982Z,96.28
2023-01-08T02:30:00.960Z,96.28
2023-01-08T02:31:00.997Z,96.28
2023-01-08T02:32:00.927Z,96.39
2023-01-08T02:33:00.918Z,96.39
2023-01-08T02:34:00.902Z,96.49
2023-01-08T02:35:00.917Z,96.49
2023-01-08T02:36:00.881Z,96.49
2023-01-08T02:37:00.859Z,96.49
2023-01-08T02:38:00.856Z,96.49
2023-01-08T02:39:00.853Z,96.49
2023-01-08T02:40:00.849Z,96.59
2023-01-08T02:41:00.821Z,96.59
2023-01-08T02:42:00.805Z,96.59
2023-01-08T02:43:00.790Z,96.59
2023-01-08T02:44:00.797Z,96.59
2023-01-08T02:45:00.788Z,96.59
2023-01-08T02:46:00.825Z,96.59
2023-01-08T02:47:00.755Z,96.59
2023-01-08T02:48:00.737Z,96.49
2023-01-08T02:49:00.748Z,96.49
2023-01-08T02:50:00.702Z,96.49
2023-01-08T02:51:00.689Z,96.39
2023-01-08T02:52:00.681Z,96.28
2023-01-08T02:53:00.670Z,96.28
2023-01-08T02:54:00.654Z,96.28
2023-01-08T02:55:00.650Z,96.33
2023-01-08T02:56:00.615Z,96.33
2023-01-08T02:57:00.623Z,96.33
2023-01-08T02:58:00.602Z,96.22
2023-01-08T02:59:00.588Z,96.33
2023-01-08T03:00:00.625Z,96.22
2023-01-08T03:01:00.591Z,96.22
2023-01-08T03:02:00.670Z,96.22
2023-01-08T03:03:00.530Z,96.22
2023-01-08T03:04:00.582Z,96.33
2023-01-08T03:05:00.528Z,96.22
2023-01-08T03:06:00.502Z,96.22
2023-01-08T03:07:00.493Z,96.33
2023-01-08T03:08:00.468Z,96.33
2023-01-08T03:09:00.454Z,96.33
2023-01-08T03:10:00.460Z,96.33
2023-01-08T03:11:00.436Z,96.22
2023-01-08T03:12:00.417Z,96.22
2023-01-08T03:13:00.392Z,96.22
2023-01-08T03:14:00.404Z,96.22
2023-01-08T03:15:00.386Z,96.33
2023-01-08T03:16:00.378Z,96.22
2023-01-08T03:17:00.476Z,96.22
2023-01-08T03:18:00.349Z,96.33
2023-01-08T03:19:00.328Z,96.33
2023-01-08T03:20:00.329Z,96.33
2023-01-08T03:21:00.300Z,96.43
2023-01-08T03:22:00.288Z,96.43
2023-01-08T03:23:00.279Z,96.43
2023-01-08T03:24:00.301Z,96.43
2023-01-08T03:25:00.248Z,96.43
2023-01-08T03:26:00.273Z,96.43
2023-01-08T03:27:00.228Z,96.43
2023-01-08T03:28:00.227Z,96.39
2023-01-08T03:29:00.232Z,96.39
2023-01-08T03:30:00.188Z,96.53
2023-01-08T03:31:00.305Z,96.49
2023-01-08T03:32:00.180Z,96.49
2023-01-08T03:33:00.149Z,96.53
2023-01-08T03:34:00.138Z,96.43
2023-01-08T03:35:00.137Z,96.43
2023-01-08T03:36:00.117Z,96.43
2023-01-08T03:37:00.099Z,96.33
2023-01-08T03:38:00.119Z,96.33
2023-01-08T03:39:00.103Z,96.43
2023-01-08T03:40:00.110Z,96.43
2023-01-08T03:41:00.054Z,96.43
2023-01-08T03:42:00.047Z,96.43
2023-01-08T03:43:00.022Z,96.43
2023-01-08T03:44:00.011Z,96.43
2023-01-08T03:45:00.019Z,96.43
2023-01-08T03:46:00.084Z,96.33
2023-01-08T03:46:59.984Z,96.43
2023-01-08T03:47:59.965Z,96.33
2023-01-08T03:48:59.953Z,96.43
2023-01-08T03:49:59.942Z,96.43
2023-01-08T04:03:31.902Z,96.39
2023-01-08T04:04:32.014Z,96.39
2023-01-08T04:05:31.893Z,96.49
2023-01-08T04:06:31.853Z,96.49
2023-01-08T04:07:31.834Z,96.49
2023-01-08T04:08:31.841Z,96.49
2023-01-08T04:09:31.829Z,96.49
2023-01-08T04:10:31.811Z,96.49
2023-01-08T04:11:31.782Z,96.49
2023-01-08T04:12:31.771Z,96.39
2023-01-08T04:13:31.771Z,96.43
2023-01-08T04:14:31.780Z,96.43
2023-01-08T04:15:31.825Z,96.39
2023-01-08T04:16:31.762Z,96.39
2023-01-08T04:17:31.722Z,96.49
2023-01-08T04:18:31.710Z,96.49
2023-01-08T04:19:31.684Z,96.49
2023-01-08T04:20:31.729Z,96.49
2023-01-08T04:21:31.671Z,96.59
2023-01-08T04:22:31.656Z,96.59
2023-01-08T04:23:31.643Z,96.55
2023-01-08T04:24:31.635Z,96.55
2023-01-08T04:25:31.622Z,96.55
2023-01-08T04:26:31.603Z,96.55
2023-01-08T04:27:31.604Z,96.55
2023-01-08T04:28:31.585Z,96.55
2023-01-08T04:29:31.574Z,96.55
2023-01-08T04:30:31.564Z,96.55
2023-01-08T04:31:31.618Z,96.55
2023-01-08T04:32:31.535Z,96.55
2023-01-08T04:33:31.513Z,96.55
2023-01-08T04:34:31.509Z,96.55
2023-01-08T04:35:31.492Z,96.55
2023-01-08T04:36:31.468Z,96.55
2023-01-08T04:37:31.482Z,96.55
2023-01-08T04:38:31.449Z,96.59
2023-01-08T04:39:31.453Z,96.55
2023-01-08T04:40:31.432Z,96.59
2023-01-08T04:41:31.418Z,96.70
2023-01-08T04:42:31.413Z,96.70
2023-01-08T04:43:31.384Z,96.70
2023-01-08T04:44:31.383Z,96.70
2023-01-08T04:45:31.371Z,96.70
2023-01-08T04:46:31.377Z,96.70
2023-01-08T04:47:31.343Z,96.70
2023-01-08T04:48:31.333Z,96.70
2023-01-08T04:49:31.335Z,96.59
2023-01-08T04:50:31.313Z,96.59
2023-01-08T04:51:31.277Z,96.59
2023-01-08T04:52:31.271Z,96.59
2023-01-08T04:53:31.242Z,96.59
2023-01-08T04:54:31.240Z,96.49
2023-01-08T04:55:31.233Z,96.49
2023-01-08T04:56:31.211Z,96.53
2023-01-08T04:57:31.214Z,96.53
2023-01-08T04:58:31.182Z,96.53
2023-01-08T04:59:31.173Z,96.53
2023-01-08T05:00:31.163Z,96.53
2023-01-08T05:01:31.244Z,96.53
2023-01-08T05:02:31.306Z,96.64
2023-01-08T05:03:31.184Z,96.64
2023-01-08T05:04:31.102Z,96.64
2023-01-08T05:05:31.128Z,96.64
2023-01-08T05:06:31.094Z,96.64
2023-01-08T05:07:31.084Z,96.75
2023-01-08T05:08:31.061Z,96.75
2023-01-08T05:09:31.053Z,96.75
2023-01-08T05:10:31.043Z,96.85
2023-01-08T05:11:31.028Z,96.85
2023-01-08T05:12:31.021Z,96.85
2023-01-08T05:13:30.992Z,96.85
2023-01-08T05:14:30.995Z,96.85
2023-01-08T05:15:31.017Z,96.85
2023-01-08T05:16:30.964Z,96.85
2023-01-08T05:17:30.954Z,96.85
2023-01-08T05:18:30.923Z,96.85
2023-01-08T05:19:30.912Z,96.85
2023-01-08T05:20:30.914Z,96.85
2023-01-08T05:21:30.911Z,96.85
2023-01-08T05:22:30.894Z,96.95
2023-01-08T05:23:30.861Z,96.91
2023-01-08T05:24:30.845Z,96.91
2023-01-08T05:25:30.853Z,96.91
2023-01-08T05:26:30.832Z,96.91
2023-01-08T05:27:30.824Z,96.91
2023-01-08T05:28:30.806Z,97.01
2023-01-08T05:29:30.793Z,97.01
2023-01-08T05:30:30.797Z,97.01
2023-01-08T05:31:30.848Z,96.97
2023-01-08T05:32:30.755Z,96.97
2023-01-08T05:33:30.754Z,96.97
2023-01-08T05:34:30.724Z,96.97
2023-01-08T05:35:30.727Z,96.97
2023-01-08T05:36:30.694Z,97.07
2023-01-08T05:37:30.702Z,97.07
2023-01-08T05:38:30.678Z,97.03
2023-01-08T05:39:30.690Z,97.03
2023-01-08T05:40:30.671Z,97.03
2023-01-08T05:41:30.634Z,97.03
2023-01-08T05:42:30.634Z,97.03
2023-01-08T05:43:30.634Z,97.03
2023-01-08T05:44:30.592Z,97.03
2023-01-08T05:45:30.594Z,97.03
2023-01-08T05:46:30.714Z,97.03
2023-01-08T05:47:30.568Z,97.03
2023-01-08T05:48:30.570Z,97.03
2023-01-08T05:49:30.533Z,97.03
2023-01-08T05:50:30.544Z,97.03
2023-01-08T05:51:30.519Z,97.03
2023-01-08T05:52:30.495Z,96.92
2023-01-08T05:53:30.485Z,96.92
2023-01-08T05:54:30.463Z,96.92
2023-01-08T05:55:30.454Z,96.92
2023-01-08T05:56:30.444Z,96.92
2023-01-08T05:57:30.439Z,96.92
2023-01-08T05:58:30.430Z,96.92
2023-01-08T05:59:30.404Z,96.92
2023-01-08T06:00:30.410Z,96.92
2023-01-08T06:01:30.429Z,96.92
2023-01-08T06:02:30.389Z,96.92
2023-01-08T06:03:30.364Z,96.92
2023-01-08T06:04:30.400Z,96.92
2023-01-08T06:05:30.327Z,96.92
2023-01-08T06:06:30.318Z,96.82
2023-01-08T06:07:30.330Z,96.92
2023-01-08T06:08:30.289Z,96.92
2023-01-08T06:09:30.298Z,96.92
2023-01-08T06:10:30.267Z,96.92
2023-01-08T06:11:30.263Z,96.92
2023-01-08T06:12:30.237Z,96.92
2023-01-08T06:13:30.212Z,96.82
2023-01-08T06:14:30.205Z,96.92
2023-01-08T06:15:30.300Z,96.92
2023-01-08T06:16:30.189Z,96.92
2023-01-08T06:17:30.191Z,96.88
2023-01-08T06:18:30.184Z,96.88
2023-01-08T06:19:30.180Z,96.88
2023-01-08T06:20:30.150Z,96.88
2023-01-08T06:21:30.160Z,96.88
2023-01-08T06:22:30.218Z,96.88
2023-01-08T06:23:30.097Z,96.88
2023-01-08T06:24:30.089Z,96.88
2023-01-08T06:25:30.088Z,96.88
2023-01-08T06:26:30.077Z,96.88
2023-01-08T06:27:30.068Z,96.83
2023-01-08T06:28:30.037Z,96.83
2023-01-08T06:29:30.039Z,96.83
2023-01-08T06:30:30.006Z,96.83
2023-01-08T06:31:30.149Z,96.83
2023-01-08T06:32:29.992Z,96.73
2023-01-08T06:33:29.981Z,96.73
2023-01-08T06:34:29.947Z,96.69
2023-01-08T06:35:29.937Z,96.79
2023-01-08T06:36:29.948Z,96.69
2023-01-08T06:37:29.937Z,96.69
2023-01-08T06:38:29.911Z,96.69
2023-01-08T06:39:29.900Z,96.69
2023-01-08T06:40:29.877Z,96.69
2023-01-08T06:41:29.880Z,96.58
2023-01-08T06:42:29.855Z,96.58
2023-01-08T06:43:29.858Z,96.58
2023-01-08T06:44:29.827Z,96.54
2023-01-08T06:45:29.841Z,96.54
2023-01-08T06:46:29.842Z,96.44
2023-01-08T06:47:29.803Z,96.44
2023-01-08T06:48:29.794Z,96.33
2023-01-08T06:49:29.767Z,96.33
2023-01-08T06:50:29.756Z,96.23
2023-01-08T06:51:29.757Z,96.23
2023-01-08T06:52:29.717Z,96.23
2023-01-08T06:53:29.708Z,96.23
2023-01-08T06:54:29.702Z,96.23
2023-01-08T06:55:29.686Z,96.23
2023-01-08T06:56:29.696Z,96.23
2023-01-08T06:57:29.667Z,96.12
2023-01-08T06:58:29.666Z,96.12
2023-01-08T06:59:29.637Z,96.02
2023-01-08T07:00:29.659Z,96.02
2023-01-08T07:01:29.770Z,95.98
2023-01-08T07:02:29.884Z,95.98
2023-01-08T07:03:29.704Z,95.98
2023-01-08T07:04:29.598Z,95.98
2023-01-08T07:05:29.599Z,95.98
2023-01-08T07:06:29.584Z,95.93
2023-01-08T07:07:29.568Z,95.93
2023-01-08T07:08:29.528Z,95.83
2023-01-08T07:09:29.517Z,95.72
2023-01-08T07:10:29.494Z,95.72
2023-01-08T07:11:29.514Z,95.62
2023-01-08T07:12:29.479Z,95.51
2023-01-08T07:13:29.459Z,95.37
2023-01-08T07:14:29.449Z,95.26
2023-01-08T07:15:29.452Z,95.16
2023-01-08T07:16:29.534Z,94.95
2023-01-08T07:17:29.412Z,94.85
2023-01-08T07:18:29.389Z,94.85
2023-01-08T07:19:29.375Z,94.85
2023-01-08T07:20:29.447Z,94.64
2023-01-08T07:21:29.365Z,94.49
2023-01-08T07:22:29.333Z,94.49
2023-01-08T07:23:29.335Z,94.49
2023-01-08T07:24:29.338Z,94.49
2023-01-08T07:25:29.308Z,94.39
2023-01-08T07:26:29.305Z,94.29
2023-01-08T07:27:29.292Z,94.18
2023-01-08T07:28:29.372Z,94.08
2023-01-08T07:29:29.620Z,94.08
2023-01-08T07:30:30.654Z,94.08
2023-01-08T07:31:29.275Z,93.77
2023-01-08T07:32:29.212Z,93.66
2023-01-08T07:33:29.222Z,93.62
2023-01-08T07:34:29.173Z,93.52
2023-01-08T07:35:29.187Z,93.41
2023-01-08T07:36:29.194Z,93.10
2023-01-08T07:37:29.134Z,93.00
2023-01-08T07:38:29.140Z,92.90
2023-01-08T07:39:29.120Z,92.90
2023-01-08T07:40:29.152Z,92.80
2023-01-08T07:41:29.104Z,92.59
2023-01-08T07:42:29.099Z,92.55
2023-01-08T07:43:29.064Z,92.24
2023-01-08T07:44:29.042Z,91.93
2023-01-08T07:45:29.094Z,91.82
2023-01-08T07:46:29.136Z,91.61
2023-01-08T07:47:29.021Z,91.61
2023-01-08T07:48:29.024Z,91.61
2023-01-08T07:49:28.980Z,91.41
2023-01-08T07:50:29.088Z,91.51
2023-01-08T07:51:28.965Z,91.51
2023-01-08T07:52:28.959Z,91.61
2023-01-08T07:53:28.942Z,91.41
2023-01-08T07:54:28.914Z,91.30
2023-01-08T07:55:28.918Z,91.30
2023-01-08T07:56:28.894Z,91.41
2023-01-08T07:57:28.898Z,91.51
2023-01-08T07:58:28.863Z,91.30
2023-01-08T07:59:28.859Z,91.30
2023-01-08T08:00:28.939Z,91.30
2023-01-08T08:01:28.875Z,91.41
2023-01-08T08:02:29.003Z,91.41
2023-01-08T08:03:28.885Z,91.41
2023-01-08T08:04:28.791Z,91.30
2023-01-08T08:05:28.775Z,90.95
2023-01-08T08:06:28.773Z,90.95
2023-01-08T08:07:28.763Z,90.95
2023-01-08T08:08:28.741Z,90.74
2023-01-08T08:09:28.727Z,90.74
2023-01-08T08:10:28.732Z,90.74
2023-01-08T08:11:28.720Z,90.74
2023-01-08T08:12:28.694Z,90.64
2023-01-08T08:13:28.699Z,90.44
2023-01-08T08:14:28.674Z,90.44
2023-01-08T08:15:28.649Z,90.53
2023-01-08T08:16:28.710Z,90.44
2023-01-08T08:17:28.645Z,90.53
2023-01-08T08:18:28.617Z,90.64
2023-01-08T08:19:28.618Z,90.33
2023-01-08T08:20:28.592Z,90.33
2023-01-08T08:21:28.587Z,90.50
2023-01-08T08:22:28.568Z,90.29
2023-01-08T08:23:28.553Z,90.19
2023-01-08T08:24:28.543Z,90.19
2023-01-08T08:25:28.517Z,90.08
2023-01-08T08:26:28.496Z,89.73
2023-01-08T08:27:28.498Z,89.52
2023-01-08T08:28:28.489Z,89.42
2023-01-08T08:29:28.471Z,89.42
2023-01-08T08:30:28.454Z,89.42
2023-01-08T08:31:28.473Z,89.42
2023-01-08T08:32:28.445Z,89.22
2023-01-08T08:33:28.415Z,89.11
2023-01-08T08:34:28.404Z,89.01
2023-01-08T08:35:28.401Z,88.90
2023-01-08T08:36:28.377Z,89.07
2023-01-08T08:37:28.371Z,89.17
2023-01-08T08:38:28.360Z,89.07
2023-01-08T08:39:28.336Z,89.17
2023-01-08T08:40:28.325Z,88.86
2023-01-08T08:41:28.316Z,88.65
2023-01-08T08:42:28.305Z,88.65
2023-01-08T08:43:28.302Z,88.86
2023-01-08T08:44:28.275Z,88.96
2023-01-08T08:45:28.264Z,89.07
2023-01-08T08:46:28.263Z,89.07
2023-01-08T08:47:28.250Z,88.86
2023-01-08T08:48:28.236Z,88.96
2023-01-08T08:49:28.212Z,88.86
2023-01-08T08:50:28.196Z,88.61
2023-01-08T08:51:28.177Z,88.51
2023-01-08T08:52:28.190Z,88.51
2023-01-08T08:53:28.170Z,88.51
2023-01-08T08:54:28.177Z,88.61
2023-01-08T08:55:28.127Z,88.71
2023-01-08T08:56:28.112Z,88.71
2023-01-08T08:57:28.105Z,88.71
2023-01-08T08:58:28.105Z,88.82
2023-01-08T08:59:28.099Z,88.92
2023-01-08T09:00:28.078Z,88.71
2023-01-08T09:01:28.168Z,88.41
2023-01-08T09:02:28.251Z,88.41
2023-01-08T09:03:28.078Z,88.71
2023-01-08T09:04:28.041Z,88.71
2023-01-08T09:05:28.007Z,88.71
2023-01-08T09:06:27.998Z,88.78
2023-01-08T09:07:27.978Z,88.89
2023-01-08T09:08:28.005Z,88.98
2023-01-08T09:09:27.939Z,89.09
2023-01-08T09:10:27.943Z,89.09
2023-01-08T09:11:27.937Z,89.19
2023-01-08T09:12:27.922Z,89.29
2023-01-08T09:13:27.903Z,89.50
2023-01-08T09:14:27.884Z,89.50
2023-01-08T09:15:27.883Z,89.50
2023-01-08T09:16:27.888Z,89.46
2023-01-08T09:17:27.848Z,89.36
2023-01-08T09:18:27.859Z,88.95
2023-01-08T09:19:27.819Z,87.92
2023-01-08T09:20:27.846Z,87.71
2023-01-08T09:21:27.851Z,87.66
2023-01-08T09:22:27.782Z,87.66
2023-01-08T09:23:27.771Z,87.15
2023-01-08T09:24:27.774Z,86.84
2023-01-08T09:25:27.790Z,86.74
2023-01-08T09:26:27.731Z,86.84
2023-01-08T09:27:27.710Z,86.90
2023-01-08T09:28:27.705Z,87.11
2023-01-08T09:29:27.721Z,87.32
2023-01-08T09:30:27.680Z,87.11
2023-01-08T09:31:27.692Z,86.90
2023-01-08T09:32:27.665Z,86.80
2023-01-08T09:33:27.658Z,86.49
2023-01-08T09:34:27.642Z,86.18
2023-01-08T09:35:27.650Z,85.94
2023-01-08T09:36:27.612Z,86.04
2023-01-08T09:37:27.582Z,85.83
2023-01-08T09:38:29.726Z,85.63
2023-01-08T09:39:27.576Z,86.04
2023-01-08T09:40:27.547Z,86.55
2023-01-08T09:41:27.534Z,86.87
2023-01-08T09:42:27.523Z,86.66
2023-01-08T09:43:27.518Z,86.55
2023-01-08T09:44:27.515Z,85.94
2023-01-08T09:45:29.015Z,85.52
2023-01-08T09:46:27.558Z,85.28
2023-01-08T09:47:27.452Z,85.38
2023-01-08T10:03:53.207Z,84.72
2023-01-08T10:04:54.516Z,84.42
2023-01-08T10:05:53.145Z,84.52
2023-01-08T10:06:53.156Z,84.62
2023-01-08T10:07:53.127Z,84.72
2023-01-08T10:08:53.110Z,84.62
2023-01-08T10:09:53.133Z,84.72
2023-01-08T10:10:53.087Z,84.83
2023-01-08T10:11:53.101Z,85.14
2023-01-08T10:12:53.075Z,85.14
2023-01-08T10:13:53.037Z,84.93
2023-01-08T10:14:54.359Z,84.93
2023-01-08T10:15:53.106Z,84.79
2023-01-08T10:16:53.015Z,84.58
2023-01-08T10:17:53.009Z,84.58
2023-01-08T10:18:52.978Z,84.58
2023-01-08T10:19:52.976Z,84.99
2023-01-08T10:20:54.708Z,85.51
2023-01-08T10:21:52.956Z,85.61
2023-01-08T10:22:52.949Z,84.99
2023-01-08T10:23:52.925Z,85.30
2023-01-08T10:24:52.942Z,85.30
2023-01-08T10:25:52.896Z,84.99
2023-01-08T10:26:54.425Z,85.20
2023-01-08T10:27:52.881Z,85.20
2023-01-08T10:28:52.854Z,85.51
2023-01-08T10:29:52.861Z,85.51
2023-01-08T10:30:52.843Z,85.82
2023-01-08T10:31:52.823Z,85.92
2023-01-08T10:32:54.427Z,86.02
2023-01-08T10:33:52.800Z,85.82
2023-01-08T10:34:52.812Z,85.92
2023-01-08T10:35:52.761Z,86.33
2023-01-08T10:36:52.767Z,86.02
2023-01-08T10:37:52.741Z,86.13
2023-01-08T10:38:52.741Z,86.33
2023-01-08T10:39:52.735Z,86.64
2023-01-08T10:40:52.705Z,87.05
2023-01-08T10:41:52.699Z,87.26
2023-01-08T10:42:52.681Z,87.46
2023-01-08T10:43:52.663Z,87.71
2023-01-08T10:44:52.671Z,87.71
2023-01-08T10:45:52.686Z,87.81
2023-01-08T10:46:52.636Z,87.92
2023-01-08T10:47:52.612Z,88.53
2023-01-08T10:48:52.596Z,88.33
2023-01-08T10:49:52.590Z,88.74
2023-01-08T10:50:52.587Z,89.05
2023-01-08T10:51:52.584Z,88.95
2023-01-08T10:52:52.542Z,89.50
2023-01-08T10:53:52.530Z,89.91
2023-01-08T10:54:52.520Z,90.01
2023-01-08T10:55:52.514Z,90.12
2023-01-08T10:56:52.486Z,89.91
2023-01-08T10:57:52.483Z,89.81
2023-01-08T10:58:52.490Z,90.12
2023-01-08T10:59:52.468Z,90.43
2023-01-08T11:00:52.478Z,90.84
2023-01-08T11:01:52.736Z,91.25
2023-01-08T11:02:52.413Z,91.25
2023-01-08T11:03:52.392Z,91.77
2023-01-08T11:04:52.399Z,91.66
2023-01-08T11:05:52.389Z,91.77
2023-01-08T11:06:52.357Z,92.08
2023-01-08T11:07:52.357Z,92.08
2023-01-08T11:08:52.317Z,92.22
2023-01-08T11:09:52.315Z,92.43
2023-01-08T11:10:52.305Z,92.53
2023-01-08T11:11:52.285Z,92.63
2023-01-08T11:12:52.266Z,92.74
2023-01-08T11:13:52.256Z,92.84
2023-01-08T11:14:52.244Z,93.05
2023-01-08T11:15:52.250Z,93.15
2023-01-08T11:16:52.218Z,93.25
2023-01-08T11:17:52.210Z,93.35
2023-01-08T11:18:52.183Z,93.25
2023-01-08T11:19:52.230Z,93.56
2023-01-08T11:20:52.170Z,93.46
2023-01-08T11:21:52.167Z,93.66
2023-01-08T11:22:52.146Z,93.77
2023-01-08T11:23:52.123Z,93.77
2023-01-08T11:24:52.135Z,93.87
2023-01-08T11:25:52.127Z,93.87
2023-01-08T11:26:52.083Z,93.77
2023-01-08T11:27:52.083Z,93.66
2023-01-08T11:28:52.054Z,93.77
2023-01-08T11:29:52.057Z,93.77
2023-01-08T11:30:52.048Z,93.87
2023-01-08T11:31:52.102Z,93.87
2023-01-08T11:32:52.006Z,93.87
2023-01-08T11:33:52.015Z,94.08
2023-01-08T11:34:51.988Z,94.18
2023-01-08T11:35:51.983Z,94.28
2023-01-08T11:36:51.969Z,94.28
2023-01-08T11:37:51.948Z,94.38
2023-01-08T11:38:51.934Z,94.49
2023-01-08T11:39:51.918Z,94.59
2023-01-08T11:40:51.939Z,94.59
2023-01-08T11:41:51.898Z,94.70
2023-01-08T11:42:51.893Z,94.80
2023-01-08T11:43:51.873Z,94.95
2023-01-08T11:44:51.835Z,95.05
2023-01-08T11:45:51.906Z,94.95
2023-01-08T11:46:51.837Z,95.05
2023-01-08T11:47:51.829Z,95.05
2023-01-08T11:48:51.803Z,95.05
2023-01-08T11:49:51.789Z,95.15
2023-01-08T11:50:51.784Z,95.15
2023-01-08T11:51:51.762Z,95.25
2023-01-08T11:52:51.739Z,95.36
2023-01-08T11:53:51.744Z,95.36
2023-01-08T11:54:51.717Z,95.36
2023-01-08T11:55:51.708Z,95.36
2023-01-08T11:56:51.689Z,95.46
2023-01-08T11:57:51.692Z,95.46
2023-01-08T11:58:51.661Z,95.56
2023-01-08T11:59:51.640Z,95.56
2023-01-08T12:00:51.650Z,95.67
2023-01-08T12:01:51.755Z,95.67
2023-01-08T12:02:51.664Z,95.67
2023-01-08T12:03:51.620Z,95.77
2023-01-08T12:04:51.582Z,95.77
2023-01-08T12:05:51.610Z,95.77
2023-01-08T12:06:51.557Z,95.71
2023-01-08T12:07:51.572Z,95.81
2023-01-08T12:08:51.536Z,95.77
2023-01-08T12:09:51.526Z,95.87
2023-01-08T12:10:51.500Z,95.87
2023-01-08T12:11:51.512Z,95.98
2023-01-08T12:12:51.485Z,95.98
2023-01-08T12:13:51.463Z,96.02
2023-01-08T12:14:51.444Z,96.12
2023-01-08T12:15:51.471Z,96.12
2023-01-08T12:16:51.411Z,96.12
2023-01-08T12:17:51.411Z,96.12
2023-01-08T12:18:51.403Z,96.23
2023-01-08T12:19:51.383Z,96.23
2023-01-08T12:20:51.362Z,96.33
2023-01-08T12:21:51.374Z,96.33
2023-01-08T12:22:51.356Z,96.23
2023-01-08T12:23:51.331Z,96.23
2023-01-08T12:24:51.325Z,96.33
2023-01-08T12:25:51.327Z,96.33
2023-01-08T12:26:51.321Z,96.33
2023-01-08T12:27:58.366Z,96.44
2023-01-08T12:28:52.264Z,96.39
2023-01-08T12:29:51.261Z,96.49
2023-01-08T12:30:51.237Z,96.49
2023-01-08T12:32:01.510Z,96.49
2023-01-08T12:32:52.211Z,96.49
2023-01-08T12:33:51.213Z,96.49
2023-01-08T12:34:51.179Z,96.49
2023-01-08T12:35:51.175Z,96.39
2023-01-08T12:36:51.184Z,96.39
2023-01-08T12:37:52.030Z,96.39
2023-01-08T12:38:51.151Z,96.39
2023-01-08T12:39:51.150Z,96.39
2023-01-08T12:40:51.118Z,96.39
2023-01-08T12:41:51.095Z,96.39
2023-01-08T12:43:00.573Z,96.28
2023-01-08T12:43:52.099Z,96.18
2023-01-08T12:44:51.047Z,96.28
2023-01-08T12:45:51.120Z,96.28
2023-01-08T12:46:51.068Z,96.28
2023-01-08T12:47:51.024Z,96.39
2023-01-08T12:48:51.992Z,96.39
2023-01-08T12:49:50.986Z,96.34
2023-01-08T12:50:50.985Z,96.34
2023-01-08T12:51:51.229Z,96.34
2023-01-08T12:52:50.960Z,96.34
2023-01-08T12:53:50.953Z,96.24
2023-01-08T12:54:50.943Z,96.24
2023-01-08T12:55:50.914Z,96.24
2023-01-08T12:56:50.901Z,96.24
2023-01-08T12:57:50.879Z,96.24
2023-01-08T12:58:50.894Z,96.24
2023-01-08T12:59:50.868Z,96.30
2023-01-08T13:00:50.852Z,96.20
2023-01-08T13:01:51.294Z,96.20
2023-01-08T13:02:50.845Z,96.20
2023-01-08T13:03:50.806Z,96.20
2023-01-08T13:04:50.786Z,96.20
2023-01-08T13:05:50.784Z,96.20
2023-01-08T13:06:50.774Z,96.09
2023-01-08T13:07:50.747Z,96.09
2023-01-08T13:08:50.726Z,95.99
2023-01-08T13:09:51.107Z,95.99
2023-01-08T13:10:50.701Z,96.09
2023-01-08T13:11:50.714Z,95.99
2023-01-08T13:12:50.679Z,95.99
2023-01-08T13:13:50.677Z,95.99
2023-01-08T13:14:50.666Z,95.99
2023-01-08T13:15:50.646Z,95.99
2023-01-08T13:16:50.657Z,95.99
2023-01-08T13:17:50.626Z,95.99
2023-01-08T13:18:50.792Z,95.99
2023-01-08T13:19:50.596Z,96.09